Time;durP1;ratioP1;P1;durP2;ratioP2;P2;SDS_P1;SDS_P2;PMS_P1;PMS_P2;Temp;Humidity;BMP_temperature;BMP_pressure;BME280_temperature;BME280_humidity;BME280_pressure;Samples;Min_cycle;Max_cycle;Signal;HPM_P1;HPM_P2
2022/02/17 05:00:52;;;;;;;92.25;57.58;;;153.90;2252.80;;;;;;4837296;29;20327;-82
2022/02/17 08:00:18;;;;;;;;;;;;;;;;;;;;;
2022/02/17 08:07:21;;;;;;;249.77;148.13;;;179.60;2252.80;;;;;;4668138;30;20072;-82
2022/02/17 09:03:47;;;;;;;70.25;47.35;;;256.20;2252.80;;;;;;4803452;29;20092;-84
2022/02/17 09:13:21;;;;;;;89.70;56.92;;;256.90;2252.80;;;;;;4769266;30;20043;-83
2022/02/17 09:37:37;;;;;;;76.45;50.53;;;307.20;2304.00;;;;;;4629793;31;20046;-83
2022/02/17 09:40:23;;;;;;;84.07;55.78;;;307.30;2304.00;;;;;;4629550;31;20125;-83
2022/02/17 09:46:47;;;;;;;91.50;61.67;;;307.60;2304.00;;;;;;4661405;30;20045;-82
2022/02/17 09:49:50;;;;;;;101.25;67.38;;;307.70;2304.00;;;;;;4705201;30;20035;-83
2022/02/17 09:52:16;;;;;;;132.73;90.63;;;307.90;2304.00;;;;;;4785123;29;20067;-80
2022/02/17 09:54:52;;;;;;;79.05;53.40;;;333.20;2329.60;;;;;;4770993;30;20081;-83
2022/02/17 09:57:26;;;;;;;85.88;59.47;;;332.90;2329.60;;;;;;4858279;29;20655;-81
2022/02/17 10:04:00;;;;;;;44.53;32.00;;;333.10;2329.60;;;;;;4863616;29;20054;-81
2022/02/17 10:06:26;;;;;;;24.67;12.80;;;333.30;2329.60;;;;;;4824127;29;20049;-83
2022/02/17 10:09:04;;;;;;;16.90;9.65;;;333.70;2329.60;;;;;;4866200;29;20048;-82
2022/02/17 10:11:56;;;;;;;19.25;9.82;;;358.40;2329.60;;;;;;4881924;29;20469;-84
2022/02/17 10:14:24;;;;;;;17.50;10.35;;;358.50;2278.40;;;;;;4882259;29;20119;-80
2022/02/17 10:17:52;;;;;;;;;;;;;;;;;;;;;
2022/02/17 10:21:33;;;;;;;22.65;10.68;;;358.60;2227.20;;;;;;4883067;29;20021;-83
2022/02/17 10:24:02;;;;;;;21.33;14.40;;;358.60;2201.60;;;;;;4881105;29;20535;-81
2022/02/17 10:26:34;;;;;;;21.58;10.40;;;358.60;2150.40;;;;;;4866364;29;20032;-83
2022/02/17 10:29:16;;;;;;;14.93;7.55;;;358.60;2124.80;;;;;;4866105;29;20025;-83
2022/02/17 10:31:44;;;;;;;21.83;12.33;;;358.60;2124.80;;;;;;4881795;29;20069;-82
2022/02/17 10:34:29;;;;;;;35.20;23.65;;;358.60;2150.40;;;;;;4882363;29;20048;-80
2022/02/17 10:36:58;;;;;;;28.77;16.88;;;358.60;2124.80;;;;;;4885125;29;20025;-82
2022/02/17 10:40:00;;;;;;;25.65;14.75;;;358.50;2124.80;;;;;;4870488;29;20372;-84
2022/02/17 10:42:27;;;;;;;130.13;61.92;;;358.80;2099.20;;;;;;4898387;29;20123;-83
2022/02/17 10:44:53;;;;;;;37.10;25.48;;;358.80;2099.20;;;;;;4884945;29;20031;-80
2022/02/17 10:47:28;;;;;;;35.35;23.88;;;358.90;2099.20;;;;;;4884843;29;20021;-83
2022/02/17 10:49:56;;;;;;;24.42;13.68;;;358.90;2073.60;;;;;;4884396;29;20035;-82
2022/02/17 10:52:40;;;;;;;20.90;13.18;;;359.00;2048.00;;;;;;4884816;29;20111;-82
2022/02/17 10:55:32;;;;;;;34.85;19.90;;;359.10;2048.00;;;;;;4900431;29;20044;-78
2022/02/17 10:58:27;;;;;;;25.40;14.75;;;359.10;2048.00;;;;;;4883269;29;20559;-82
2022/02/17 11:01:04;;;;;;;17.58;7.35;;;359.20;2022.40;;;;;;4869866;29;20043;-81
2022/02/17 11:03:37;;;;;;;17.48;8.95;;;359.00;2022.40;;;;;;4884037;29;20488;-81
2022/02/17 11:06:14;;;;;;;15.15;8.55;;;359.00;2022.40;;;;;;4884228;29;20116;-83
2022/02/17 11:10:08;;;;;;;13.27;7.75;;;359.00;2022.40;;;;;;4882322;29;20120;-81
2022/02/17 11:12:19;;;;;;;18.63;8.95;;;359.00;2022.40;;;;;;4870948;29;20029;-85
2022/02/17 11:15:05;;;;;;;32.88;23.23;;;359.10;2022.40;;;;;;4869229;29;20171;-83
2022/02/17 11:21:06;;;;;;;14.75;9.48;;;384.00;1971.20;;;;;;4865429;29;20567;-84
2022/02/17 11:23:40;;;;;;;81.25;55.03;;;384.10;1971.20;;;;;;4883638;29;20071;-85
2022/02/17 11:26:26;;;;;;;29.30;18.25;;;384.10;1971.20;;;;;;4853571;29;20059;-80
2022/02/17 11:29:01;;;;;;;19.77;12.68;;;384.10;1971.20;;;;;;4899559;29;20071;-82
2022/02/17 11:31:27;;;;;;;14.65;8.40;;;384.20;1945.60;;;;;;4883577;29;20032;-82
2022/02/17 11:34:45;;;;;;;11.23;7.80;;;384.30;1945.60;;;;;;4880860;29;20094;-81
2022/02/17 11:48:42;;;;;;;;;;;;;;;;;;;;;
2022/02/17 11:51:17;;;;;;;13.88;7.93;;;384.40;1920.00;;;;;;4772883;29;20036;-78
2022/02/17 11:54:16;;;;;;;13.55;7.70;;;384.40;1920.00;;;;;;4881672;29;20044;-81
2022/02/17 11:56:45;;;;;;;10.23;7.07;;;384.20;1945.60;;;;;;4880283;29;20096;-76
2022/02/17 11:59:27;;;;;;;10.45;7.10;;;384.10;1945.60;;;;;;4879733;29;20025;-77
2022/02/17 12:01:56;;;;;;;16.05;7.95;;;384.10;1945.60;;;;;;4880173;29;20040;-80
2022/02/17 12:04:32;;;;;;;14.13;7.95;;;384.00;1945.60;;;;;;4880199;29;20064;-76
2022/02/17 12:07:03;;;;;;;16.02;7.85;;;359.30;1945.60;;;;;;4879869;29;20028;-78
2022/02/17 12:09:33;;;;;;;14.30;8.82;;;384.00;1971.20;;;;;;4880077;29;20021;-78
2022/02/17 12:13:09;;;;;;;14.88;8.27;;;359.30;1971.20;;;;;;4880337;29;20036;-77
2022/02/17 12:15:33;;;;;;;14.70;10.15;;;359.30;1971.20;;;;;;4880419;29;20037;-79
2022/02/17 12:17:59;;;;;;;22.58;13.20;;;359.20;1996.80;;;;;;4879875;29;20040;-82
2022/02/17 12:20:28;;;;;;;23.08;15.55;;;359.20;1996.80;;;;;;4879464;29;20477;-79
2022/02/17 12:23:07;;;;;;;20.80;15.18;;;359.30;1996.80;;;;;;4879838;29;20021;-79
2022/02/17 12:25:34;;;;;;;18.63;12.23;;;359.20;1996.80;;;;;;4879905;29;20056;-78
2022/02/17 12:28:11;;;;;;;23.30;16.63;;;359.20;1996.80;;;;;;4879432;29;20112;-78
2022/02/17 12:30:42;;;;;;;23.48;14.32;;;359.20;1996.80;;;;;;4878952;29;20040;-81
2022/02/17 12:33:25;;;;;;;18.90;13.25;;;359.20;2022.40;;;;;;4879554;29;20193;-85
2022/02/17 12:36:00;;;;;;;29.20;21.63;;;359.20;2022.40;;;;;;4879612;29;20112;-82
2022/02/17 12:38:34;;;;;;;33.88;22.80;;;359.30;2022.40;;;;;;4879230;29;20029;-83
2022/02/17 12:41:08;;;;;;;14.15;10.43;;;384.00;2022.40;;;;;;4878835;29;20481;-79
2022/02/17 12:43:37;;;;;;;16.85;10.13;;;384.00;1996.80;;;;;;4879212;29;20027;-78
2022/02/17 12:46:09;;;;;;;20.85;13.15;;;384.00;1996.80;;;;;;4879100;29;20024;-81
2022/02/17 12:48:45;;;;;;;11.18;8.82;;;384.10;1996.80;;;;;;4878022;29;20053;-84
2022/02/17 12:51:49;;;;;;;46.50;28.75;;;384.00;1996.80;;;;;;4878364;29;20068;-85
2022/02/17 12:54:18;;;;;;;28.65;16.52;;;384.10;1996.80;;;;;;4793171;29;20034;-83
2022/02/17 12:56:45;;;;;;;39.97;24.00;;;384.10;1996.80;;;;;;4850659;29;20557;-84
2022/02/17 12:59:16;;;;;;;24.13;10.85;;;384.10;1996.80;;;;;;4863535;29;20060;-82
2022/02/17 13:01:59;;;;;;;21.92;12.35;;;384.10;1971.20;;;;;;4878845;29;20048;-85
2022/02/17 13:04:25;;;;;;;;;;;384.20;1945.60;;;;;;4878246;29;20021;-83
2022/02/17 13:07:14;;;;;;;20.38;12.32;;;384.20;1945.60;;;;;;4879431;29;19968;-84
2022/02/17 13:09:55;;;;;;;21.75;11.43;;;384.30;1945.60;;;;;;4877553;29;20029;-81
2022/02/17 13:12:24;;;;;;;13.57;7.65;;;384.30;1945.60;;;;;;4878668;29;20029;-82
2022/02/17 13:14:54;;;;;;;15.65;9.60;;;384.30;1945.60;;;;;;4878902;29;20054;-81
2022/02/17 13:17:25;;;;;;;12.32;6.15;;;384.40;1945.60;;;;;;4878355;29;20096;-80
2022/02/17 13:20:17;;;;;;;7.82;4.75;;;384.30;1945.60;;;;;;4878973;29;20028;-84
2022/02/17 13:22:46;;;;;;;9.30;6.10;;;384.20;1945.60;;;;;;4877912;29;20037;-81
2022/02/17 13:25:45;;;;;;;13.18;7.57;;;384.30;1945.60;;;;;;4894464;29;20124;-82
2022/02/17 13:28:15;;;;;;;9.80;6.70;;;384.30;1945.60;;;;;;4887434;29;20389;-83
2022/02/17 13:30:49;;;;;;;17.02;8.95;;;384.30;1945.60;;;;;;4878476;29;20032;-84
2022/02/17 13:33:27;;;;;;;19.45;10.48;;;384.40;1971.20;;;;;;4894223;29;20136;-82
2022/02/17 13:37:10;;;;;;;;;;;;;;;;;;;;;
2022/02/17 13:43:58;;;;;;;9.48;6.85;;;384.50;1945.60;;;;;;4857234;29;20052;-84
2022/02/17 13:46:48;;;;;;;11.55;6.35;;;384.70;1920.00;;;;;;4840289;29;20035;-82
2022/02/17 13:49:17;;;;;;;16.73;6.15;;;409.80;1920.00;;;;;;4840772;29;20022;-83
2022/02/17 13:51:58;;;;;;;18.23;11.30;;;410.30;1868.80;;;;;;4865309;29;20069;-83
2022/02/17 13:54:52;;;;;;;9.32;6.43;;;410.20;1868.80;;;;;;4878388;29;20025;-84
2022/02/17 13:57:33;;;;;;;15.10;8.85;;;410.30;1868.80;;;;;;4878457;29;20074;-84
2022/02/17 14:00:09;;;;;;;11.88;7.40;;;410.50;1843.20;;;;;;4875911;29;20025;-80
2022/02/17 14:02:36;;;;;;;12.52;6.80;;;410.10;1843.20;;;;;;4878296;29;20056;-82
2022/02/17 14:05:10;;;;;;;13.88;9.85;;;410.10;1868.80;;;;;;4877946;29;20032;-85
2022/02/17 14:07:42;;;;;;;16.02;9.77;;;410.20;1868.80;;;;;;4879547;29;20025;-80
2022/02/17 14:10:14;;;;;;;13.57;8.30;;;410.20;1843.20;;;;;;4878298;29;20026;-83
2022/02/17 14:12:52;;;;;;;24.20;13.00;;;410.10;1843.20;;;;;;4877846;29;20119;-84
2022/02/17 14:15:30;;;;;;;19.00;12.27;;;410.00;1843.20;;;;;;4877154;29;20021;-81
2022/02/17 14:17:59;;;;;;;18.30;12.35;;;410.20;1843.20;;;;;;4878112;29;20025;-85
2022/02/17 14:20:25;;;;;;;14.18;8.02;;;410.10;1843.20;;;;;;4877477;29;20033;-83
2022/02/17 14:22:52;;;;;;;14.07;10.23;;;409.90;1868.80;;;;;;4877730;29;20566;-84
2022/02/17 14:25:18;;;;;;;17.73;9.18;;;410.00;1843.20;;;;;;4879121;29;20076;-81
2022/02/17 14:27:45;;;;;;;20.83;11.52;;;409.80;1868.80;;;;;;4877817;29;20029;-83
2022/02/17 14:30:17;;;;;;;17.63;8.90;;;409.80;1868.80;;;;;;4862564;29;20032;-84
2022/02/17 14:32:50;;;;;;;14.48;8.73;;;409.70;1894.40;;;;;;4877193;29;20045;-79
2022/02/17 14:35:35;;;;;;;20.27;12.80;;;409.60;1920.00;;;;;;4877880;29;20029;-81
2022/02/17 14:38:01;;;;;;;17.00;9.30;;;409.60;1920.00;;;;;;4893438;29;20522;-81
2022/02/17 14:40:29;;;;;;;18.42;10.82;;;384.90;1868.80;;;;;;4878222;29;20124;-82
2022/02/17 14:42:55;;;;;;;16.58;9.60;;;384.90;1894.40;;;;;;4877775;29;20020;-78
2022/02/17 14:45:24;;;;;;;15.82;10.18;;;384.90;1868.80;;;;;;4877824;29;20116;-79
2022/02/17 14:47:50;;;;;;;24.60;14.88;;;384.90;1868.80;;;;;;4877955;29;20021;-80
2022/02/17 14:50:20;;;;;;;10.80;6.15;;;384.90;1868.80;;;;;;4878839;29;20029;-81
2022/02/17 14:52:47;;;;;;;11.98;7.38;;;384.90;1868.80;;;;;;4877979;29;20154;-81
2022/02/17 14:55:13;;;;;;;22.00;11.18;;;384.90;1868.80;;;;;;4881212;29;20170;-79
2022/02/17 14:57:39;;;;;;;13.82;9.15;;;384.80;1868.80;;;;;;4880999;29;20043;-80
2022/02/17 15:00:07;;;;;;;24.42;14.20;;;384.70;1868.80;;;;;;4881221;29;20051;-80
2022/02/17 15:02:33;;;;;;;26.35;15.18;;;384.70;1868.80;;;;;;4896765;29;20037;-79
2022/02/17 15:04:59;;;;;;;21.05;13.27;;;384.70;1868.80;;;;;;4882033;29;20489;-78
2022/02/17 15:07:25;;;;;;;27.08;17.13;;;384.70;1894.40;;;;;;4881193;29;20029;-77
2022/02/17 15:09:51;;;;;;;26.00;18.85;;;384.70;1920.00;;;;;;4881135;29;20025;-78
2022/02/17 15:12:18;;;;;;;37.42;26.70;;;384.70;1894.40;;;;;;4880815;29;20465;-80
2022/02/17 15:14:44;;;;;;;31.60;21.60;;;384.70;1920.00;;;;;;4881022;29;20029;-79
2022/02/17 15:17:11;;;;;;;35.78;21.63;;;384.50;1920.00;;;;;;4880979;29;20484;-81
2022/02/17 15:22:33;;;;;;;31.00;20.23;;;384.60;1920.00;;;;;;4882295;29;20063;-80
2022/02/17 15:25:01;;;;;;;43.15;23.85;;;384.40;1945.60;;;;;;4880546;29;20025;-81
2022/02/17 15:27:51;;;;;;;;;;;;;;;;;;;;;
2022/02/17 15:30:30;;;;;;;22.67;14.73;;;384.40;1945.60;;;;;;4882281;29;20025;-81
2022/02/17 15:33:23;;;;;;;18.17;10.40;;;384.30;1945.60;;;;;;4879447;29;20075;-81
2022/02/17 15:35:49;;;;;;;22.75;15.35;;;384.30;1945.60;;;;;;4880751;29;20031;-80
2022/02/17 15:38:16;;;;;;;35.30;21.25;;;384.20;1945.60;;;;;;4880502;29;20025;-80
2022/02/17 15:40:46;;;;;;;54.65;33.30;;;384.10;1971.20;;;;;;4879994;29;20370;-79
2022/02/17 15:44:00;;;;;;;62.10;48.33;;;384.00;1971.20;;;;;;4880411;29;20021;-79
2022/02/17 15:46:43;;;;;;;22.23;16.15;;;384.00;1971.20;;;;;;4880117;29;20040;-84
2022/02/17 15:49:09;;;;;;;19.05;12.38;;;359.30;1996.80;;;;;;4880261;29;20033;-81
2022/02/17 15:51:46;;;;;;;18.48;11.35;;;359.20;1996.80;;;;;;4880478;29;20373;-80
2022/02/17 15:54:17;;;;;;;16.50;11.23;;;359.20;1996.80;;;;;;4880298;29;20084;-81
2022/02/17 15:57:16;;;;;;;15.98;10.88;;;359.10;2022.40;;;;;;4880226;29;20037;-82
2022/02/17 16:00:23;;;;;;;29.60;18.80;;;359.00;2022.40;;;;;;4888579;29;20044;-79
2022/02/17 16:02:49;;;;;;;13.60;9.02;;;359.00;2022.40;;;;;;4879997;29;20080;-81
2022/02/17 16:05:54;;;;;;;25.92;18.00;;;359.00;2048.00;;;;;;4879720;29;20025;-83
2022/02/17 16:08:26;;;;;;;34.60;20.27;;;359.00;2048.00;;;;;;4879734;29;20552;-81
2022/02/17 16:10:52;;;;;;;32.28;23.65;;;358.90;2073.60;;;;;;4895659;29;20025;-80
2022/02/17 16:13:18;;;;;;;34.70;18.77;;;358.80;2073.60;;;;;;4879820;29;20032;-79
2022/02/17 16:15:44;;;;;;;32.53;20.02;;;358.80;2073.60;;;;;;4879485;29;20021;-79
2022/02/17 16:18:10;;;;;;;41.92;24.20;;;358.80;2073.60;;;;;;4879952;29;20485;-80
2022/02/17 16:20:37;;;;;;;51.25;32.80;;;358.60;2099.20;;;;;;4879865;29;20036;-77
2022/02/17 16:23:20;;;;;;;59.60;40.10;;;358.60;2099.20;;;;;;4879563;29;20033;-78
2022/02/17 16:26:16;;;;;;;70.70;46.20;;;358.50;2124.80;;;;;;4879275;29;20029;-81
2022/02/17 16:29:03;;;;;;;96.03;65.47;;;358.40;2124.80;;;;;;4879570;29;20040;-82
2022/02/17 16:31:29;;;;;;;129.65;86.32;;;333.70;2150.40;;;;;;4895122;29;20374;-80
2022/02/17 16:33:55;;;;;;;137.05;94.97;;;333.70;2150.40;;;;;;4879500;29;20037;-81
2022/02/17 16:36:21;;;;;;;122.97;80.72;;;333.60;2176.00;;;;;;4880626;29;20378;-82
2022/02/17 16:42:12;;;;;;;142.95;85.90;;;333.50;2150.40;;;;;;4856219;29;20037;-81
2022/02/17 16:45:13;;;;;;;122.65;75.55;;;333.40;2176.00;;;;;;4879749;29;20377;-82
2022/02/17 16:48:11;;;;;;;52.85;35.05;;;333.40;2201.60;;;;;;4879627;29;20060;-81
2022/02/17 16:50:41;;;;;;;62.88;42.22;;;333.30;2176.00;;;;;;4875576;29;20036;-81
2022/02/17 16:53:09;;;;;;;69.10;37.67;;;333.30;2176.00;;;;;;4895049;29;20021;-81
2022/02/17 16:55:41;;;;;;;62.95;39.13;;;333.30;2150.40;;;;;;4879118;29;20029;-83
2022/02/17 16:58:09;;;;;;;71.20;48.15;;;333.30;2176.00;;;;;;4878868;29;20046;-79
2022/02/17 17:00:56;;;;;;;59.65;41.75;;;333.30;2176.00;;;;;;4878904;29;20070;-81
2022/02/17 17:03:57;;;;;;;66.60;45.58;;;333.30;2201.60;;;;;;4878624;29;20351;-81
2022/02/17 17:07:31;;;;;;;;;;;;;;;;;;;;;
2022/02/17 17:13:57;;;;;;;113.85;73.18;;;332.90;2252.80;;;;;;4857684;29;20081;-83
2022/02/17 17:17:46;;;;;;;150.70;97.13;;;332.90;2252.80;;;;;;4877073;29;20107;-83
2022/02/17 17:20:12;;;;;;;165.88;107.07;;;332.80;2278.40;;;;;;4874984;29;20139;-77
2022/02/17 17:22:39;;;;;;;170.93;114.82;;;308.10;2278.40;;;;;;4878796;29;20021;-80
2022/02/17 17:25:07;;;;;;;188.88;122.88;;;308.10;2278.40;;;;;;4878348;29;20423;-79
2022/02/17 17:27:33;;;;;;;174.77;116.22;;;308.00;2304.00;;;;;;4878888;29;20037;-80
2022/02/17 17:29:59;;;;;;;201.73;140.02;;;308.00;2304.00;;;;;;4878753;29;20025;-79
2022/02/17 17:32:48;;;;;;;193.23;135.15;;;307.90;2304.00;;;;;;4878457;29;20039;-77
2022/02/17 17:35:17;;;;;;;250.40;159.15;;;307.80;2304.00;;;;;;4878847;29;20051;-78
2022/02/17 17:37:46;;;;;;;245.57;154.63;;;307.80;2304.00;;;;;;4878764;29;20085;-80
2022/02/17 17:40:32;;;;;;;230.00;148.70;;;307.80;2304.00;;;;;;4878385;29;20032;-80
2022/02/17 17:43:25;;;;;;;228.82;147.70;;;307.90;2304.00;;;;;;4863078;29;20033;-84
2022/02/17 17:46:18;;;;;;;209.70;137.10;;;307.90;2304.00;;;;;;4877950;29;20025;-78
2022/02/17 17:52:14;;;;;;;160.75;101.22;;;307.80;2304.00;;;;;;4859831;29;20044;-83
2022/02/17 17:54:53;;;;;;;135.88;84.90;;;308.00;2304.00;;;;;;4878313;29;20017;-85
2022/02/17 17:57:29;;;;;;;69.50;45.70;;;307.90;2304.00;;;;;;4878122;29;20025;-83
2022/02/17 18:00:23;;;;;;;50.45;32.60;;;307.90;2304.00;;;;;;4878078;29;20032;-83
2022/02/17 18:02:51;;;;;;;30.13;20.63;;;307.90;2304.00;;;;;;4870628;29;20448;-85
2022/02/17 18:05:16;;;;;;;33.00;21.35;;;308.10;2278.40;;;;;;4878135;29;20415;-80
2022/02/17 18:07:42;;;;;;;29.08;18.58;;;308.10;2304.00;;;;;;4877954;29;20024;-81
2022/02/17 18:13:08;;;;;;;19.10;13.20;;;308.10;2304.00;;;;;;4866138;29;20096;-82
2022/02/17 18:16:03;;;;;;;16.00;11.95;;;308.10;2304.00;;;;;;4893534;29;20377;-82
2022/02/17 18:18:58;;;;;;;18.52;11.98;;;308.00;2304.00;;;;;;4878988;29;20114;-81
2022/02/17 18:22:33;;;;;;;22.50;15.50;;;307.90;2304.00;;;;;;4878060;29;20029;-81
2022/02/17 18:25:20;;;;;;;17.15;13.07;;;307.90;2304.00;;;;;;4868671;29;20068;-81
2022/02/17 18:27:57;;;;;;;16.75;12.25;;;308.00;2304.00;;;;;;4884072;29;20029;-81
2022/02/17 18:30:50;;;;;;;14.00;9.73;;;307.90;2304.00;;;;;;4897248;29;20025;-80
2022/02/17 18:34:13;;;;;;;20.65;15.32;;;307.90;2304.00;;;;;;4874170;29;20056;-82
2022/02/17 18:36:43;;;;;;;32.25;20.35;;;307.80;2304.00;;;;;;4872323;29;20484;-84
2022/02/17 18:39:34;;;;;;;34.17;21.23;;;307.70;2304.00;;;;;;4881589;29;20032;-81
2022/02/17 18:42:30;;;;;;;;;;;;;;;;;;;;;
2022/02/17 18:45:19;;;;;;;115.18;51.75;;;282.50;2278.40;;;;;;4882635;29;20364;-80
2022/02/17 18:48:52;;;;;;;60.53;33.20;;;307.70;2304.00;;;;;;4881462;29;20021;-84
2022/02/17 18:52:06;;;;;;;28.17;15.80;;;307.50;2304.00;;;;;;4809793;29;20128;-81
2022/02/17 18:54:44;;;;;;;50.80;33.63;;;307.50;2304.00;;;;;;4852164;29;20093;-83
2022/02/17 18:57:11;;;;;;;30.45;19.88;;;307.50;2304.00;;;;;;4865199;29;20037;-80
2022/02/17 18:59:40;;;;;;;27.92;17.90;;;307.30;2304.00;;;;;;4880977;29;20484;-80
2022/02/17 19:02:08;;;;;;;24.15;16.65;;;307.20;2304.00;;;;;;4877074;29;20051;-80
2022/02/17 19:04:37;;;;;;;19.77;12.75;;;307.20;2304.00;;;;;;4881552;29;20077;-84
2022/02/17 19:07:05;;;;;;;34.72;24.15;;;282.50;2278.40;;;;;;4850726;29;20134;-83
2022/02/17 19:09:31;;;;;;;55.97;40.42;;;282.50;2278.40;;;;;;4880751;29;20526;-80
2022/02/17 19:11:59;;;;;;;54.25;39.22;;;282.40;2278.40;;;;;;4896773;29;20036;-78
2022/02/17 19:14:26;;;;;;;69.95;46.60;;;282.40;2278.40;;;;;;4865556;29;20119;-80
2022/02/17 19:16:54;;;;;;;93.80;61.60;;;282.40;2278.40;;;;;;4881784;29;20052;-79
2022/02/17 19:23:32;;;;;;;160.95;106.47;;;282.40;2278.40;;;;;;4842759;29;20045;-84
2022/02/17 19:29:53;;;;;;;125.88;86.50;;;282.20;2278.40;;;;;;4788641;29;20040;-84
2022/02/17 19:33:24;;;;;;;258.90;170.07;;;281.90;2278.40;;;;;;4717747;30;20102;-84
2022/02/17 19:36:59;;;;;;;109.80;77.95;;;281.80;2278.40;;;;;;4702907;30;20041;-86
2022/02/17 19:44:20;;;;;;;;;;;;;;;;;;;;;
2022/02/17 19:47:57;;;;;;;101.65;67.10;;;256.80;2252.80;;;;;;4565301;31;20093;-85
2022/02/17 19:51:04;;;;;;;202.10;130.18;;;256.70;2252.80;;;;;;4565522;31;20045;-85
2022/02/17 19:53:33;;;;;;;217.88;143.52;;;282.10;2278.40;;;;;;4568990;31;20204;-84
2022/02/17 19:56:19;;;;;;;191.73;132.43;;;256.60;2252.80;;;;;;4586382;31;20044;-86
2022/02/17 20:03:15;;;;;;;139.25;90.63;;;256.60;2252.80;;;;;;4617956;31;20079;-84
2022/02/17 20:06:27;;;;;;;135.13;81.80;;;256.50;2252.80;;;;;;4636410;30;20489;-85
2022/02/17 20:09:21;;;;;;;72.85;47.03;;;256.40;2252.80;;;;;;4709110;30;20048;-84
2022/02/17 20:12:54;;;;;;;75.57;48.67;;;256.20;2252.80;;;;;;4744587;30;20121;-85
2022/02/17 20:16:27;;;;;;;167.43;82.22;;;256.30;2252.80;;;;;;4692476;30;20032;-86
2022/02/17 20:19:59;;;;;;;198.80;116.15;;;256.30;2252.80;;;;;;4734059;30;20126;-85
2022/02/17 20:23:12;;;;;;;191.60;119.88;;;256.20;2252.80;;;;;;4748131;30;20140;-85
2022/02/17 20:26:14;;;;;;;230.70;141.37;;;256.00;2252.80;;;;;;4769130;30;20044;-85
2022/02/17 20:29:04;;;;;;;195.27;121.65;;;256.20;2252.80;;;;;;4770958;30;20342;-83
2022/02/17 20:32:07;;;;;;;218.32;122.97;;;256.10;2252.80;;;;;;4744720;30;20512;-85
2022/02/17 20:34:39;;;;;;;183.90;102.93;;;256.00;2252.80;;;;;;4769220;30;20499;-84
2022/02/17 20:37:10;;;;;;;208.10;120.78;;;231.30;2252.80;;;;;;4754181;30;20533;-84
2022/02/17 20:39:45;;;;;;;236.95;130.70;;;231.30;2252.80;;;;;;4754297;30;20576;-83
2022/02/17 20:42:14;;;;;;;193.25;117.38;;;231.30;2252.80;;;;;;4739294;30;20040;-84
2022/02/17 20:53:36;;;;;;;230.23;145.82;;;256.00;2252.80;;;;;;4766457;30;20115;-82
2022/02/17 20:58:56;;;;;;;178.25;116.38;;;231.20;2252.80;;;;;;4805401;29;20082;-83
2022/02/17 21:01:32;;;;;;;217.65;128.57;;;231.00;2252.80;;;;;;4804597;29;20034;-82
2022/02/17 21:04:09;;;;;;;222.68;125.43;;;231.00;2252.80;;;;;;4804934;29;20111;-83
2022/02/17 21:06:39;;;;;;;210.50;129.68;;;230.90;2252.80;;;;;;4804802;29;20041;-80
2022/02/17 21:09:18;;;;;;;204.20;122.97;;;231.00;2252.80;;;;;;4799974;29;20120;-82
2022/02/17 21:11:56;;;;;;;210.70;122.35;;;230.90;2252.80;;;;;;4789668;29;20178;-81
2022/02/17 21:14:27;;;;;;;260.83;143.73;;;230.80;2252.80;;;;;;4789688;29;20031;-82
2022/02/17 21:16:59;;;;;;;226.48;126.68;;;231.00;2252.80;;;;;;4791744;29;20468;-81
2022/02/17 21:19:25;;;;;;;247.27;134.30;;;230.80;2252.80;;;;;;4894663;29;20454;-81
2022/02/17 21:21:56;;;;;;;263.17;130.32;;;230.80;2252.80;;;;;;4878953;29;20025;-82
2022/02/17 21:24:25;;;;;;;184.80;93.95;;;230.60;2252.80;;;;;;4879162;29;20415;-81
2022/02/17 21:27:23;;;;;;;155.52;82.57;;;230.60;2252.80;;;;;;4878964;29;20025;-82
2022/02/17 21:29:48;;;;;;;197.73;100.40;;;230.40;2252.80;;;;;;4892975;29;20553;-82
2022/02/17 21:32:15;;;;;;;180.52;86.40;;;230.40;2252.80;;;;;;4878820;29;20122;-80
2022/02/17 21:34:41;;;;;;;205.45;95.82;;;230.40;2252.80;;;;;;4878409;29;20039;-80
2022/02/17 21:37:07;;;;;;;185.30;101.38;;;205.50;2252.80;;;;;;4878156;29;20373;-80
2022/02/17 21:39:35;;;;;;;184.65;114.55;;;230.40;2252.80;;;;;;4878297;29;20126;-79
2022/02/17 21:42:07;;;;;;;208.68;120.45;;;230.60;2252.80;;;;;;4878616;29;20029;-82
2022/02/17 21:44:34;;;;;;;214.98;131.57;;;230.40;2252.80;;;;;;4878394;29;20049;-81
2022/02/17 21:47:00;;;;;;;236.82;145.82;;;230.40;2252.80;;;;;;4875468;29;20037;-81
2022/02/17 21:49:36;;;;;;;264.73;157.40;;;230.40;2252.80;;;;;;4878284;29;20024;-80
2022/02/17 21:52:02;;;;;;;281.23;169.77;;;230.40;2252.80;;;;;;4893570;29;20025;-82
2022/02/17 21:54:28;;;;;;;228.88;144.38;;;230.50;2252.80;;;;;;4878189;29;20021;-82
2022/02/17 21:57:00;;;;;;;175.68;113.40;;;230.50;2252.80;;;;;;4878334;29;20048;-77
2022/02/17 21:59:26;;;;;;;150.10;91.93;;;230.40;2252.80;;;;;;4863620;29;20040;-81
2022/02/17 22:01:53;;;;;;;154.50;97.93;;;230.40;2252.80;;;;;;4878634;29;20276;-80
2022/02/17 22:04:20;;;;;;;101.10;65.93;;;230.40;2252.80;;;;;;4883266;29;20029;-81
2022/02/17 22:06:46;;;;;;;77.78;45.80;;;230.40;2252.80;;;;;;4881918;29;20025;-77
2022/02/17 22:09:12;;;;;;;66.43;36.35;;;230.40;2252.80;;;;;;4880822;29;20036;-78
2022/02/17 22:11:38;;;;;;;73.13;45.83;;;230.50;2252.80;;;;;;4881571;29;20488;-79
2022/02/17 22:14:04;;;;;;;105.90;62.65;;;230.50;2252.80;;;;;;4881545;29;20071;-81
2022/02/17 22:16:30;;;;;;;132.10;81.25;;;230.40;2252.80;;;;;;4866741;29;20056;-79
2022/02/17 22:18:56;;;;;;;138.70;87.75;;;205.70;2252.80;;;;;;4881430;29;20462;-81
2022/02/17 22:21:22;;;;;;;134.57;85.03;;;205.70;2252.80;;;;;;4881636;29;20021;-77
2022/02/17 22:23:47;;;;;;;75.88;44.92;;;205.60;2252.80;;;;;;4881881;29;20076;-77
2022/02/17 22:26:15;;;;;;;34.75;21.75;;;205.60;2252.80;;;;;;4881962;29;20056;-80
2022/02/17 22:28:41;;;;;;;23.25;11.80;;;230.40;2252.80;;;;;;4882184;29;20146;-81
2022/02/17 22:31:07;;;;;;;20.08;12.07;;;230.60;2252.80;;;;;;4882861;29;20052;-81
2022/02/17 22:33:35;;;;;;;47.28;29.27;;;230.80;2252.80;;;;;;4906102;29;20041;-79
2022/02/17 22:36:01;;;;;;;50.80;29.90;;;230.60;2252.80;;;;;;4906636;29;20032;-80
2022/02/17 22:38:42;;;;;;;54.00;31.50;;;230.60;2252.80;;;;;;4900367;29;20067;-77
2022/02/17 22:41:10;;;;;;;66.28;39.05;;;230.60;2252.80;;;;;;4882599;29;20060;-77
2022/02/17 22:43:36;;;;;;;98.35;56.53;;;230.60;2252.80;;;;;;4881370;29;20115;-78
2022/02/17 22:46:03;;;;;;;106.28;64.70;;;230.40;2252.80;;;;;;4881229;29;20052;-77
2022/02/17 22:48:29;;;;;;;120.80;74.93;;;230.40;2252.80;;;;;;4881349;29;20021;-77
2022/02/17 22:50:55;;;;;;;173.63;102.05;;;230.40;2252.80;;;;;;4881365;29;20031;-78
2022/02/17 22:53:21;;;;;;;139.35;82.43;;;205.70;2252.80;;;;;;4881247;29;20025;-78
2022/02/17 22:55:47;;;;;;;150.77;84.63;;;230.40;2252.80;;;;;;4881443;29;20031;-79
2022/02/17 22:58:13;;;;;;;192.48;111.22;;;230.40;2252.80;;;;;;4881384;29;20064;-78
2022/02/17 23:00:58;;;;;;;200.88;122.53;;;230.40;2252.80;;;;;;4880613;29;20056;-80
2022/02/17 23:03:24;;;;;;;205.27;116.18;;;230.40;2252.80;;;;;;4881091;29;20120;-80
2022/02/17 23:05:50;;;;;;;199.55;113.68;;;230.40;2252.80;;;;;;4881381;29;20108;-79
2022/02/17 23:11:01;;;;;;;143.65;82.75;;;230.40;2252.80;;;;;;4882613;29;20072;-80
2022/02/17 23:13:54;;;;;;;133.98;81.38;;;230.40;2252.80;;;;;;4881314;29;20057;-81
2022/02/17 23:19:07;;;;;;;129.98;74.22;;;230.40;2252.80;;;;;;4882448;29;20537;-75
2022/02/17 23:21:33;;;;;;;108.18;62.53;;;230.40;2252.80;;;;;;4880425;29;20035;-76
2022/02/17 23:23:59;;;;;;;125.82;70.80;;;230.50;2252.80;;;;;;4880958;29;20116;-79
2022/02/17 23:26:27;;;;;;;124.32;71.07;;;230.60;2252.80;;;;;;4880926;29;20077;-80
2022/02/17 23:28:53;;;;;;;91.65;51.13;;;230.60;2252.80;;;;;;4880581;29;20055;-81
2022/02/17 23:31:21;;;;;;;113.43;67.20;;;230.60;2252.80;;;;;;4880870;29;20028;-82
2022/02/17 23:33:48;;;;;;;160.40;89.65;;;230.60;2252.80;;;;;;4881155;29;20415;-78
2022/02/17 23:36:14;;;;;;;46.28;26.05;;;230.70;2252.80;;;;;;4880425;29;20461;-79
2022/02/17 23:38:40;;;;;;;33.30;18.67;;;230.80;2252.80;;;;;;4880334;29;20144;-78
2022/02/17 23:41:07;;;;;;;30.00;16.63;;;231.00;2252.80;;;;;;4880587;29;20037;-78